createdAt,value
2019-03-10T00:02:04.686Z,100522
2019-03-10T00:04:33.574Z,100515
2019-03-10T00:07:02.437Z,100511
2019-03-10T00:09:31.309Z,100511
2019-03-10T00:12:00.180Z,100510
2019-03-10T00:14:29.225Z,100491
2019-03-10T00:16:58.063Z,100504
2019-03-10T00:19:26.988Z,100490
2019-03-10T00:21:55.811Z,100494
2019-03-10T00:24:24.687Z,100502
2019-03-10T00:26:53.550Z,100504
2019-03-10T00:29:22.430Z,100500
2019-03-10T00:31:51.308Z,100495
2019-03-10T00:34:20.182Z,100507
2019-03-10T00:36:49.072Z,100511
2019-03-10T00:39:27.443Z,100509
2019-03-10T00:42:08.657Z,100520
2019-03-10T00:44:55.096Z,100521
2019-03-10T00:47:35.615Z,100495
2019-03-10T00:50:12.986Z,100496
2019-03-10T00:52:42.624Z,100488
2019-03-10T00:55:11.520Z,100486
2019-03-10T00:57:40.360Z,100476
2019-03-10T01:00:12.801Z,100466
2019-03-10T01:02:41.673Z,100461
2019-03-10T01:05:10.544Z,100458
2019-03-10T01:07:39.407Z,100463
2019-03-10T01:10:08.322Z,100459
2019-03-10T01:12:37.189Z,100459
2019-03-10T01:15:06.069Z,100452
2019-03-10T01:17:34.967Z,100450
2019-03-10T01:20:04.584Z,100449
2019-03-10T01:22:33.440Z,100447
2019-03-10T01:25:02.308Z,100443
2019-03-10T01:27:31.178Z,100435
2019-03-10T01:30:00.034Z,100427
2019-03-10T01:32:29.720Z,100408
2019-03-10T01:35:01.257Z,100401
2019-03-10T01:37:30.125Z,100390
2019-03-10T01:39:59.041Z,100379
2019-03-10T01:42:28.500Z,100380
2019-03-10T01:44:57.360Z,100377
2019-03-10T01:47:26.212Z,100375
2019-03-10T01:49:55.084Z,100369
2019-03-10T01:52:23.966Z,100353
2019-03-10T01:54:53.465Z,100352
2019-03-10T01:57:23.066Z,100350
2019-03-10T01:59:52.073Z,100352
2019-03-10T02:02:25.741Z,100346
2019-03-10T02:04:49.826Z,100346
2019-03-10T02:07:18.673Z,100344
2019-03-10T02:09:47.550Z,100323
2019-03-10T02:12:16.409Z,100304
2019-03-10T02:14:45.275Z,100296
2019-03-10T02:17:14.142Z,100293
2019-03-10T02:19:43.022Z,100282
2019-03-10T02:22:11.894Z,100275
2019-03-10T02:24:40.762Z,100281
2019-03-10T02:27:09.633Z,100265
2019-03-10T02:29:38.502Z,100252
2019-03-10T02:32:08.126Z,100254
2019-03-10T02:34:36.989Z,100239
2019-03-10T02:37:05.867Z,100221
2019-03-10T02:39:34.717Z,100196
2019-03-10T02:42:03.611Z,100192
2019-03-10T02:44:32.479Z,100194
2019-03-10T02:47:01.377Z,100148
2019-03-10T02:49:30.349Z,100122
2019-03-10T02:51:59.188Z,100110
2019-03-10T02:54:28.056Z,100125
2019-03-10T02:56:56.927Z,100146
2019-03-10T02:59:25.794Z,100145
2019-03-10T03:01:54.647Z,100157
2019-03-10T03:04:23.501Z,100150
2019-03-10T03:06:52.390Z,100161
2019-03-10T03:09:21.259Z,100178
2019-03-10T03:11:50.137Z,100153
2019-03-10T03:14:19.008Z,100128
2019-03-10T03:16:47.889Z,100122
2019-03-10T03:19:16.739Z,100113
2019-03-10T03:21:45.619Z,100107
2019-03-10T03:24:14.503Z,100100
2019-03-10T03:26:43.379Z,100096
2019-03-10T03:29:12.217Z,100086
2019-03-10T03:31:41.063Z,100091
2019-03-10T03:34:10.683Z,100080
2019-03-10T03:36:39.561Z,100066
2019-03-10T03:39:15.963Z,100069
2019-03-10T03:41:44.802Z,100070
2019-03-10T03:44:13.712Z,100066
2019-03-10T03:46:42.544Z,100051
2019-03-10T03:49:11.405Z,100039
2019-03-10T03:51:40.295Z,100029
2019-03-10T03:54:09.214Z,100030
2019-03-10T03:56:38.096Z,100027
2019-03-10T03:59:06.991Z,100025
2019-03-10T04:01:35.856Z,100014
2019-03-10T04:04:05.487Z,99995
2019-03-10T04:06:35.096Z,99994
2019-03-10T04:09:04.014Z,99987
2019-03-10T04:11:33.576Z,99981
2019-03-10T04:14:03.194Z,99975
2019-03-10T04:16:32.057Z,99975
2019-03-10T04:19:01.703Z,99962
2019-03-10T04:21:30.553Z,99955
2019-03-10T04:23:59.443Z,99958
2019-03-10T04:26:28.366Z,99948
2019-03-10T04:28:57.224Z,99944
2019-03-10T04:31:26.115Z,99924
2019-03-10T04:33:54.994Z,99936
2019-03-10T04:36:23.869Z,99934
2019-03-10T04:38:52.768Z,99927
2019-03-10T04:41:21.594Z,99930
2019-03-10T04:43:50.460Z,99921
2019-03-10T04:46:19.330Z,99912
2019-03-10T04:48:48.293Z,99903
2019-03-10T04:51:17.144Z,99895
2019-03-10T04:53:46.736Z,99880
2019-03-10T04:56:15.652Z,99868
2019-03-10T04:58:44.498Z,99870
2019-03-10T05:01:13.374Z,99862
2019-03-10T05:03:42.252Z,99863
2019-03-10T05:06:11.164Z,99846
2019-03-10T05:08:40.020Z,99851
2019-03-10T05:11:08.956Z,99827
2019-03-10T05:13:37.819Z,99808
2019-03-10T05:16:06.728Z,99792
2019-03-10T05:18:35.544Z,99791
2019-03-10T05:21:05.138Z,99775
2019-03-10T05:23:35.750Z,99778
2019-03-10T05:26:04.579Z,99778
2019-03-10T05:28:33.450Z,99783
2019-03-10T05:31:02.925Z,99779
2019-03-10T05:33:31.802Z,99773
2019-03-10T05:36:00.652Z,99764
2019-03-10T05:38:29.524Z,99765
2019-03-10T05:40:58.438Z,99761
2019-03-10T05:43:27.255Z,99759
2019-03-10T05:45:56.134Z,99750
2019-03-10T05:48:25.059Z,99751
2019-03-10T05:50:53.883Z,99745
2019-03-10T05:53:22.822Z,99729
2019-03-10T05:55:51.730Z,99736
2019-03-10T05:58:20.607Z,99722
2019-03-10T06:00:49.472Z,99718
2019-03-10T06:03:18.344Z,99707
2019-03-10T06:05:47.220Z,99707
2019-03-10T06:08:16.923Z,99710
2019-03-10T06:10:45.773Z,99700
2019-03-10T06:13:14.634Z,99695
2019-03-10T06:15:43.518Z,99698
2019-03-10T06:18:14.177Z,99685
2019-03-10T06:20:42.747Z,99681
2019-03-10T06:23:11.618Z,99675
2019-03-10T06:25:41.241Z,99672
2019-03-10T06:28:10.119Z,99654
2019-03-10T06:30:39.002Z,99664
2019-03-10T06:33:07.881Z,99661
2019-03-10T06:35:37.530Z,99656
2019-03-10T06:38:06.612Z,99647
2019-03-10T06:40:35.470Z,99640
2019-03-10T06:43:04.362Z,99624
2019-03-10T06:45:34.048Z,99624
2019-03-10T06:48:02.908Z,99611
2019-03-10T06:50:31.783Z,99599
2019-03-10T06:53:00.688Z,99607
2019-03-10T06:55:29.546Z,99611
2019-03-10T06:57:58.441Z,99607
2019-03-10T07:00:27.311Z,99605
2019-03-10T07:02:56.202Z,99619
2019-03-10T07:05:25.290Z,99615
2019-03-10T07:07:54.148Z,99610
2019-03-10T07:10:23.110Z,99602
2019-03-10T07:12:51.991Z,99593
2019-03-10T07:15:20.858Z,99591
2019-03-10T07:17:50.457Z,99613
2019-03-10T07:20:20.181Z,99598
2019-03-10T07:22:49.833Z,99588
2019-03-10T07:25:18.716Z,99577
2019-03-10T07:27:47.598Z,99588
2019-03-10T07:30:22.085Z,99596
2019-03-10T07:32:51.062Z,99599
2019-03-10T07:35:19.971Z,99593
2019-03-10T07:37:49.598Z,99585
2019-03-10T07:40:22.328Z,99580
2019-03-10T07:42:51.223Z,99570
2019-03-10T07:45:20.131Z,99571
2019-03-10T07:47:53.518Z,99555
2019-03-10T07:50:25.261Z,99557
2019-03-10T07:52:54.161Z,99551
2019-03-10T07:55:23.094Z,99551
2019-03-10T07:57:53.584Z,99546
2019-03-10T08:00:27.852Z,99539
2019-03-10T08:02:56.838Z,99534
2019-03-10T08:05:27.603Z,99530
2019-03-10T08:07:56.478Z,99535
2019-03-10T08:10:25.436Z,99533
2019-03-10T08:12:55.242Z,99525
2019-03-10T08:15:28.657Z,99526
2019-03-10T08:17:58.444Z,99534
2019-03-10T08:20:32.911Z,99531
2019-03-10T08:23:01.935Z,99529
2019-03-10T08:25:31.764Z,99526
2019-03-10T08:28:02.385Z,99526
2019-03-10T08:30:32.059Z,99525
2019-03-10T08:33:06.407Z,99524
2019-03-10T08:35:38.053Z,99518
2019-03-10T08:38:07.052Z,99530
2019-03-10T08:40:35.943Z,99516
2019-03-10T08:43:04.826Z,99520
2019-03-10T08:45:33.705Z,99514
2019-03-10T08:48:05.336Z,99513
2019-03-10T08:50:36.197Z,99515
2019-03-10T08:53:05.083Z,99515
2019-03-10T08:55:39.541Z,99506
2019-03-10T08:58:08.428Z,99506
2019-03-10T09:00:37.282Z,99499
2019-03-10T09:03:08.925Z,99497
2019-03-10T09:05:40.551Z,99488
2019-03-10T09:08:09.418Z,99492
2019-03-10T09:10:41.839Z,99485
2019-03-10T09:13:11.444Z,99483
2019-03-10T09:15:43.135Z,99482
2019-03-10T09:18:14.708Z,99492
2019-03-10T09:20:45.071Z,99490
2019-03-10T09:23:15.833Z,99499
2019-03-10T09:25:48.475Z,99488
2019-03-10T09:28:17.394Z,99482
2019-03-10T09:30:48.153Z,99473
2019-03-10T09:33:17.023Z,99468
2019-03-10T09:35:51.440Z,99466
2019-03-10T09:38:20.331Z,99467
2019-03-10T09:40:51.954Z,99478
2019-03-10T09:43:20.810Z,99476
2019-03-10T09:45:51.468Z,99468
2019-03-10T09:48:20.335Z,99468
2019-03-10T09:50:50.059Z,99472
2019-03-10T09:53:18.990Z,99460
2019-03-10T09:55:47.885Z,99457
2019-03-10T09:58:18.529Z,99460
2019-03-10T10:00:52.241Z,99451
2019-03-10T10:03:25.576Z,99443
2019-03-10T10:05:55.521Z,99462
2019-03-10T10:08:26.157Z,99459
2019-03-10T10:10:57.821Z,99444
2019-03-10T10:13:26.716Z,99449
2019-03-10T10:15:56.450Z,99443
2019-03-10T10:18:26.165Z,99437
2019-03-10T10:21:00.733Z,99426
2019-03-10T10:23:29.672Z,99436
2019-03-10T10:25:58.533Z,99415
2019-03-10T10:28:29.291Z,99427
2019-03-10T10:30:58.903Z,99445
2019-03-10T10:33:32.537Z,99441
2019-03-10T10:36:05.235Z,99438
2019-03-10T10:38:34.125Z,99438
2019-03-10T10:41:06.759Z,99432
2019-03-10T10:43:36.408Z,99433
2019-03-10T10:46:07.190Z,99415
2019-03-10T10:48:36.893Z,99419
2019-03-10T10:51:05.766Z,99417
2019-03-10T10:53:37.539Z,99403
2019-03-10T10:56:06.459Z,99405
2019-03-10T10:58:39.215Z,99404
2019-03-10T11:01:12.569Z,99402
2019-03-10T11:03:46.249Z,99414
2019-03-10T11:06:15.122Z,99425
2019-03-10T11:08:47.684Z,99407
2019-03-10T11:11:18.374Z,99411
2019-03-10T11:13:50.174Z,99395
2019-03-10T11:16:19.093Z,99399
2019-03-10T11:18:47.911Z,99401
2019-03-10T11:21:16.785Z,99403
2019-03-10T11:23:51.253Z,99389
2019-03-10T11:26:25.682Z,99364
2019-03-10T11:28:54.567Z,99388
2019-03-10T11:31:23.477Z,99377
2019-03-10T11:33:55.040Z,99383
2019-03-10T11:36:24.089Z,99368
2019-03-10T11:38:52.976Z,99362
2019-03-10T11:41:21.843Z,99366
2019-03-10T11:43:50.697Z,99362
2019-03-10T11:46:26.187Z,99366
2019-03-10T11:48:55.892Z,99362
2019-03-10T11:51:28.289Z,99349
2019-03-10T11:53:58.904Z,99355
2019-03-10T11:56:27.805Z,99371
2019-03-10T11:58:58.438Z,99372
2019-03-10T12:01:27.297Z,99368
2019-03-10T12:03:56.258Z,99352
2019-03-10T12:06:27.854Z,99341
2019-03-10T12:08:58.590Z,99334
2019-03-10T12:11:27.467Z,99341
2019-03-10T12:13:56.334Z,99332
2019-03-10T12:16:25.239Z,99311
2019-03-10T12:18:54.113Z,99318
2019-03-10T12:21:22.966Z,99339
2019-03-10T12:23:51.819Z,99339
2019-03-10T12:26:20.682Z,99333
2019-03-10T12:28:49.532Z,99319
2019-03-10T12:31:18.406Z,99323
2019-03-10T12:33:47.278Z,99330
2019-03-10T12:36:16.123Z,99299
2019-03-10T12:38:44.992Z,99294
2019-03-10T12:41:13.849Z,99320
2019-03-10T12:43:42.765Z,99338
2019-03-10T12:46:11.605Z,99308
2019-03-10T12:48:40.460Z,99359
2019-03-10T12:51:09.300Z,99273
2019-03-10T12:53:38.146Z,99293
2019-03-10T12:56:07.737Z,99307
2019-03-10T12:58:36.593Z,99292
2019-03-10T13:01:06.742Z,99321
2019-03-10T13:03:34.389Z,99309
2019-03-10T13:06:03.919Z,99305
2019-03-10T13:08:32.772Z,99325
2019-03-10T13:11:01.629Z,99318
2019-03-10T13:13:30.503Z,99351
2019-03-10T13:15:59.318Z,99297
2019-03-10T13:18:28.175Z,99272
2019-03-10T13:20:57.023Z,99276
2019-03-10T13:23:26.629Z,99312
2019-03-10T13:25:55.473Z,99305
2019-03-10T13:28:24.319Z,99289
2019-03-10T13:30:53.167Z,99300
2019-03-10T13:33:22.613Z,99333
2019-03-10T13:35:51.466Z,99308
2019-03-10T13:38:20.311Z,99306
2019-03-10T13:40:49.159Z,99333
2019-03-10T13:43:18.025Z,99328
2019-03-10T13:45:46.861Z,99334
2019-03-10T13:48:15.752Z,99344
2019-03-10T13:50:44.567Z,99324
2019-03-10T13:53:13.421Z,99357
2019-03-10T13:55:42.256Z,99382
2019-03-10T13:58:11.115Z,99361
2019-03-10T14:00:39.970Z,99383
2019-03-10T14:03:09.569Z,99394
2019-03-10T14:05:38.455Z,99397
2019-03-10T14:08:07.263Z,99405
2019-03-10T14:10:36.851Z,99433
2019-03-10T14:13:05.675Z,99416
2019-03-10T14:15:34.529Z,99396
2019-03-10T14:18:03.388Z,99435
2019-03-10T14:20:32.226Z,99395
2019-03-10T14:23:01.075Z,99441
2019-03-10T14:25:29.918Z,99422
2019-03-10T14:27:58.803Z,99448
2019-03-10T14:30:28.397Z,99479
2019-03-10T14:32:57.281Z,99483
2019-03-10T14:35:26.103Z,99463
2019-03-10T14:37:54.967Z,99510
2019-03-10T14:40:23.777Z,99510
2019-03-10T14:42:52.604Z,99501
2019-03-10T14:45:21.442Z,99524
2019-03-10T14:47:51.024Z,99563
2019-03-10T14:50:19.862Z,99551
2019-03-10T14:52:48.703Z,99561
2019-03-10T14:55:17.550Z,99565
2019-03-10T14:57:46.385Z,99600
2019-03-10T15:00:17.055Z,99593
2019-03-10T15:02:45.886Z,99616
2019-03-10T15:05:14.728Z,99580
2019-03-10T15:07:43.570Z,99586
2019-03-10T15:10:12.418Z,99623
2019-03-10T15:12:41.260Z,99654
2019-03-10T15:15:21.262Z,99622
2019-03-10T15:17:39.921Z,99668
2019-03-10T15:20:08.765Z,99679
2019-03-10T15:22:38.352Z,99673
2019-03-10T15:25:07.219Z,99683
2019-03-10T15:27:36.051Z,99694
2019-03-10T15:30:05.651Z,99706
2019-03-10T15:32:35.237Z,99705
2019-03-10T15:35:04.099Z,99730
2019-03-10T15:37:32.943Z,99721
2019-03-10T15:40:02.538Z,99732
2019-03-10T15:42:32.150Z,99725
2019-03-10T15:45:01.732Z,99705
2019-03-10T15:47:30.593Z,99730
2019-03-10T15:49:59.456Z,99758
2019-03-10T15:52:28.321Z,99764
2019-03-10T15:54:57.203Z,99776
2019-03-10T15:57:26.011Z,99771
2019-03-10T15:59:54.858Z,99788
2019-03-10T16:02:23.711Z,99839
2019-03-10T16:04:52.574Z,99846
2019-03-10T16:07:21.411Z,99830
2019-03-10T16:09:50.253Z,99853
2019-03-10T16:12:19.839Z,99849
2019-03-10T16:14:48.688Z,99867
2019-03-10T16:17:17.576Z,99866
2019-03-10T16:19:46.421Z,99853
2019-03-10T16:22:15.226Z,99877
2019-03-10T16:24:44.076Z,99896
2019-03-10T16:27:12.903Z,99897
2019-03-10T16:29:42.492Z,99876
2019-03-10T16:32:11.351Z,99882
2019-03-10T16:34:40.227Z,99907
2019-03-10T16:37:09.067Z,99907
2019-03-10T16:39:38.677Z,99894
2019-03-10T16:42:07.523Z,99913
2019-03-10T16:44:36.389Z,99933
2019-03-10T16:47:05.229Z,99906
2019-03-10T16:49:34.092Z,99928
2019-03-10T16:52:02.965Z,99959
2019-03-10T16:54:31.779Z,99928
2019-03-10T16:57:00.643Z,99937
2019-03-10T16:59:29.473Z,99929
2019-03-10T17:01:58.334Z,99934
2019-03-10T17:04:27.165Z,99942
2019-03-10T17:06:56.756Z,99955
2019-03-10T17:09:25.595Z,99972
2019-03-10T17:11:54.442Z,99941
2019-03-10T17:14:23.290Z,99962
2019-03-10T17:16:52.131Z,99951
2019-03-10T17:19:20.976Z,99980
2019-03-10T17:21:49.831Z,99979
2019-03-10T17:24:18.712Z,99987
2019-03-10T17:26:47.561Z,100001
2019-03-10T17:29:16.451Z,100014
2019-03-10T17:31:45.289Z,100011
2019-03-10T17:34:14.138Z,100030
2019-03-10T17:36:42.984Z,100055
2019-03-10T17:39:12.612Z,100084
2019-03-10T17:41:41.494Z,100100
2019-03-10T17:44:10.309Z,100099
2019-03-10T17:46:39.145Z,100103
2019-03-10T17:49:08.020Z,100122
2019-03-10T17:51:37.602Z,100130
2019-03-10T17:54:06.472Z,100125
2019-03-10T17:56:35.316Z,100130
2019-03-10T17:59:04.178Z,100138
2019-03-10T18:01:33.010Z,100151
2019-03-10T18:04:01.859Z,100174
2019-03-10T18:06:30.735Z,100175
2019-03-10T18:08:59.573Z,100177
2019-03-10T18:11:28.421Z,100180
2019-03-10T18:13:58.009Z,100209
2019-03-10T18:16:26.870Z,100199
2019-03-10T18:18:55.773Z,100201
2019-03-10T18:21:24.644Z,100213
2019-03-10T18:23:53.483Z,100231
2019-03-10T18:26:23.071Z,100222
2019-03-10T18:28:52.031Z,100230
2019-03-10T18:31:21.559Z,100236
2019-03-10T18:33:50.445Z,100246
2019-03-10T18:36:19.324Z,100259
2019-03-10T18:38:48.169Z,100263
2019-03-10T18:41:17.102Z,100266
2019-03-10T18:43:45.975Z,100251
2019-03-10T18:46:15.537Z,100278
2019-03-10T18:48:44.403Z,100278
2019-03-10T18:51:13.251Z,100275
2019-03-10T18:53:42.097Z,100288
2019-03-10T18:56:10.956Z,100293
2019-03-10T18:58:39.828Z,100298
2019-03-10T19:01:08.671Z,100312
2019-03-10T19:03:37.532Z,100305
2019-03-10T19:06:06.383Z,100303
2019-03-10T19:08:35.272Z,100310
2019-03-10T19:11:04.093Z,100313
2019-03-10T19:13:32.976Z,100337
2019-03-10T19:16:01.831Z,100335
2019-03-10T19:18:31.453Z,100325
2019-03-10T19:21:00.268Z,100338
2019-03-10T19:23:29.130Z,100354
2019-03-10T19:25:58.027Z,100358
2019-03-10T19:28:26.857Z,100363
2019-03-10T19:30:56.477Z,100367
2019-03-10T19:33:25.324Z,100373
2019-03-10T19:35:54.214Z,100373
2019-03-10T19:38:23.776Z,100381
2019-03-10T19:40:52.649Z,100391
2019-03-10T19:43:21.507Z,100373
2019-03-10T19:45:50.359Z,100397
2019-03-10T19:48:19.213Z,100405
2019-03-10T19:50:48.047Z,100400
2019-03-10T19:53:16.971Z,100396
2019-03-10T19:55:46.515Z,100414
2019-03-10T19:58:15.375Z,100421
2019-03-10T20:00:44.247Z,100431
2019-03-10T20:03:13.114Z,100465
2019-03-10T20:05:41.982Z,100465
2019-03-10T20:08:11.615Z,100477
2019-03-10T20:10:41.197Z,100487
2019-03-10T20:13:10.080Z,100517
2019-03-10T20:15:38.936Z,100500
2019-03-10T20:18:07.786Z,100502
2019-03-10T20:20:36.642Z,100514
2019-03-10T20:23:05.517Z,100500
2019-03-10T20:25:34.340Z,100497
2019-03-10T20:28:04.018Z,100527
2019-03-10T20:30:32.862Z,100534
2019-03-10T20:33:02.448Z,100528
2019-03-10T20:35:31.309Z,100525
2019-03-10T20:38:00.174Z,100533
2019-03-10T20:40:29.067Z,100533
2019-03-10T20:42:57.951Z,100526
2019-03-10T20:45:26.767Z,100534
2019-03-10T20:47:56.771Z,100541
2019-03-10T20:50:24.492Z,100530
2019-03-10T20:52:53.339Z,100545
2019-03-10T20:55:24.157Z,100544
2019-03-10T20:57:52.709Z,100556
2019-03-10T21:00:23.837Z,100554
2019-03-10T21:02:52.692Z,100555
2019-03-10T21:05:22.505Z,100552
2019-03-10T21:07:51.362Z,100548
2019-03-10T21:10:21.137Z,100553
2019-03-10T21:12:49.986Z,100566
2019-03-10T21:15:18.842Z,100567
2019-03-10T21:17:47.684Z,100577
2019-03-10T21:20:16.560Z,100575
2019-03-10T21:22:45.487Z,100590
2019-03-10T21:27:54.546Z,100609
2019-03-10T21:30:24.372Z,100604
2019-03-10T21:32:53.245Z,100615
2019-03-10T21:35:22.107Z,100617
2019-03-10T21:37:50.957Z,100622
2019-03-10T21:40:20.765Z,100621
2019-03-10T21:42:49.647Z,100626
2019-03-10T21:45:18.500Z,100626
2019-03-10T21:47:47.369Z,100638
2019-03-10T21:50:16.239Z,100636
2019-03-10T21:52:45.197Z,100628
2019-03-10T21:55:14.062Z,100630
2019-03-10T21:57:42.912Z,100651
2019-03-10T22:00:11.844Z,100659
2019-03-10T22:02:40.720Z,100652
2019-03-10T22:05:10.612Z,100651
2019-03-10T22:07:39.487Z,100652
2019-03-10T22:10:08.372Z,100656
2019-03-10T22:12:37.220Z,100662
2019-03-10T22:15:06.094Z,100671
2019-03-10T22:17:34.964Z,100678
2019-03-10T22:20:03.854Z,100675
2019-03-10T22:22:32.741Z,100689
2019-03-10T22:25:12.110Z,100686
2019-03-10T22:27:30.601Z,100691
2019-03-10T22:30:00.378Z,100690
2019-03-10T22:32:29.173Z,100701
2019-03-10T22:34:58.011Z,100705
2019-03-10T22:37:26.899Z,100700
2019-03-10T22:39:55.909Z,100702
2019-03-10T22:42:24.775Z,100710
2019-03-10T22:44:54.385Z,100710
2019-03-10T22:47:23.319Z,100714
2019-03-10T22:49:52.194Z,100717
2019-03-10T22:52:21.092Z,100718
2019-03-10T22:54:49.972Z,100719
2019-03-10T22:57:18.839Z,100735
2019-03-10T22:59:47.720Z,100727
2019-03-10T23:02:16.567Z,100738
2019-03-10T23:04:45.462Z,100740
2019-03-10T23:07:14.288Z,100739
2019-03-10T23:09:43.175Z,100744
2019-03-10T23:12:12.076Z,100737
2019-03-10T23:14:40.959Z,100735
2019-03-10T23:17:10.569Z,100746
2019-03-10T23:19:39.526Z,100751
2019-03-10T23:22:08.386Z,100756
2019-03-10T23:24:37.281Z,100752
2019-03-10T23:27:06.139Z,100749
2019-03-10T23:29:35.031Z,100752
2019-03-10T23:32:03.914Z,100747
2019-03-10T23:34:32.815Z,100754
2019-03-10T23:37:01.695Z,100754
2019-03-10T23:39:31.303Z,100753
2019-03-10T23:42:00.200Z,100751
2019-03-10T23:44:29.080Z,100751
2019-03-10T23:46:58.708Z,100743
2019-03-10T23:49:27.566Z,100737
2019-03-10T23:51:56.448Z,100733
2019-03-10T23:54:26.057Z,100733
2019-03-10T23:56:55.667Z,100738
2019-03-10T23:59:24.568Z,100728
